Time;durP1;ratioP1;P1;durP2;ratioP2;P2;SDS_P1;SDS_P2;PMS_P1;PMS_P2;Temp;Humidity;BMP_temperature;BMP_pressure;BME280_temperature;BME280_humidity;BME280_pressure;Samples;Min_cycle;Max_cycle;Signal;HPM_P1;HPM_P2
2022/01/11 00:01:45;;;;;;;218.53;123.73;;;12.70;59.40;;;;;;5168732;28;20062;-30
2022/01/11 00:04:17;;;;;;;237.70;131.80;;;12.60;59.20;;;;;;5169084;28;20130;-30
2022/01/11 00:06:50;;;;;;;220.10;128.45;;;12.60;59.10;;;;;;5168661;28;20066;-31
2022/01/11 00:09:38;;;;;;;219.30;128.67;;;12.60;59.00;;;;;;5166655;28;20061;-29
2022/01/11 00:12:10;;;;;;;227.63;132.90;;;12.60;58.90;;;;;;5168856;28;20050;-29
2022/01/11 00:14:41;;;;;;;195.40;116.20;;;12.60;59.00;;;;;;5168355;28;20054;-29
2022/01/11 00:17:12;;;;;;;205.90;120.40;;;12.60;58.60;;;;;;5168458;28;20049;-29
2022/01/11 00:19:45;;;;;;;183.83;111.27;;;12.60;58.60;;;;;;5167121;28;20053;-29
2022/01/11 00:22:19;;;;;;;;;;;12.60;58.70;;;;;;5169033;28;20046;-30
2022/01/11 00:24:50;;;;;;;149.70;95.93;;;12.50;58.50;;;;;;5168452;28;19949;-29
2022/01/11 00:27:21;;;;;;;154.80;97.37;;;12.50;58.60;;;;;;5166982;28;20046;-30
2022/01/11 00:29:55;;;;;;;194.43;117.37;;;12.60;58.60;;;;;;5168153;28;20042;-29
2022/01/11 00:32:38;;;;;;;203.90;113.77;;;12.50;58.50;;;;;;5168210;28;20042;-31
2022/01/11 00:35:11;;;;;;;311.03;147.10;;;12.50;58.40;;;;;;5168407;28;20535;-30
2022/01/11 00:37:43;;;;;;;226.93;129.53;;;12.50;58.30;;;;;;5168069;28;20054;-31
2022/01/11 00:40:14;;;;;;;205.93;126.30;;;12.50;58.30;;;;;;5168060;28;20498;-31
2022/01/11 00:42:45;;;;;;;207.83;129.77;;;12.50;58.40;;;;;;5166618;28;20177;-30
2022/01/11 00:45:16;;;;;;;184.67;118.97;;;12.50;59.00;;;;;;5166555;28;20558;-31
2022/01/11 00:47:47;;;;;;;231.47;145.13;;;12.50;58.50;;;;;;5167886;28;20046;-28
2022/01/11 00:50:18;;;;;;;195.63;124.00;;;12.50;58.60;;;;;;5167915;28;20373;-30
2022/01/11 00:52:49;;;;;;;173.40;110.87;;;12.50;58.50;;;;;;5167421;28;20042;-29
2022/01/11 00:55:20;;;;;;;156.90;105.07;;;12.50;58.50;;;;;;5167964;28;20498;-31
2022/01/11 00:57:51;;;;;;;166.70;110.23;;;12.50;58.20;;;;;;5167712;28;20416;-30
2022/01/11 01:00:22;;;;;;;158.83;101.70;;;12.40;58.20;;;;;;5149478;28;20057;-29
2022/01/11 01:02:53;;;;;;;150.73;95.00;;;12.40;58.20;;;;;;5167626;28;20468;-29
2022/01/11 01:05:24;;;;;;;177.53;114.13;;;12.40;58.20;;;;;;5167502;28;20080;-30
2022/01/11 01:07:55;;;;;;;206.63;125.57;;;12.40;58.20;;;;;;5167236;28;20069;-31
2022/01/11 01:10:34;;;;;;;183.30;111.67;;;12.40;58.10;;;;;;5167415;28;20096;-31
2022/01/11 01:13:09;;;;;;;189.57;115.70;;;12.40;58.10;;;;;;5166739;28;20049;-29
2022/01/11 01:15:40;;;;;;;169.20;108.63;;;12.40;58.00;;;;;;5149972;28;20070;-29
2022/01/11 01:18:14;;;;;;;211.40;132.40;;;12.40;58.10;;;;;;5166146;28;20453;-29
2022/01/11 01:20:45;;;;;;;196.10;125.03;;;12.40;58.20;;;;;;5166970;28;20101;-31
2022/01/11 01:23:16;;;;;;;205.83;119.63;;;12.40;58.10;;;;;;5166979;28;20119;-30
2022/01/11 01:25:47;;;;;;;216.63;119.70;;;12.40;58.20;;;;;;5167223;28;20050;-30
2022/01/11 01:28:19;;;;;;;214.23;119.87;;;12.40;58.10;;;;;;5165916;28;20455;-31
2022/01/11 01:30:55;;;;;;;184.03;112.77;;;12.40;58.00;;;;;;5167085;28;20056;-29
2022/01/11 01:33:26;;;;;;;153.80;99.03;;;12.30;58.10;;;;;;5165958;28;20074;-31
2022/01/11 01:36:01;;;;;;;189.27;113.40;;;12.30;59.50;;;;;;5166254;28;20046;-29
2022/01/11 01:38:33;;;;;;;184.67;112.83;;;12.30;60.30;;;;;;5167024;28;20125;-30
2022/01/11 01:41:15;;;;;;;168.03;106.67;;;12.30;59.90;;;;;;5165677;28;20057;-31
2022/01/11 01:43:48;;;;;;;129.10;86.97;;;12.30;59.60;;;;;;5150749;28;20066;-30
2022/01/11 01:46:19;;;;;;;140.45;90.68;;;12.30;59.20;;;;;;5166955;28;20038;-29
2022/01/11 01:48:50;;;;;;;150.37;95.00;;;12.30;59.00;;;;;;5166888;28;20073;-30
2022/01/11 01:51:21;;;;;;;191.90;118.30;;;12.40;58.90;;;;;;5166643;28;20038;-30
2022/01/11 01:53:52;;;;;;;186.83;116.13;;;12.40;58.70;;;;;;5166244;28;20107;-29
2022/01/11 01:56:24;;;;;;;161.30;101.13;;;12.30;58.60;;;;;;5165664;28;20042;-29
2022/01/11 01:58:55;;;;;;;135.40;90.63;;;12.40;58.60;;;;;;5166832;28;20046;-29
2022/01/11 02:01:26;;;;;;;134.07;86.63;;;12.30;58.50;;;;;;5165604;28;20053;-30
2022/01/11 02:03:58;;;;;;;157.57;99.63;;;12.30;58.40;;;;;;5167093;28;20511;-30
2022/01/11 02:06:28;;;;;;;196.40;124.20;;;12.30;58.30;;;;;;5166688;28;20069;-29
2022/01/11 02:08:59;;;;;;;210.10;125.20;;;12.30;58.10;;;;;;5165765;28;20062;-30
2022/01/11 02:11:31;;;;;;;188.30;112.73;;;12.30;58.10;;;;;;5165397;28;20606;-29
2022/01/11 02:14:02;;;;;;;162.30;102.87;;;12.30;58.00;;;;;;5166752;28;20084;-31
2022/01/11 02:16:33;;;;;;;175.93;115.63;;;12.30;57.80;;;;;;5165744;28;20038;-30
2022/01/11 02:19:04;;;;;;;170.87;106.60;;;12.30;57.90;;;;;;5166844;28;20084;-29
2022/01/11 02:21:35;;;;;;;158.47;101.00;;;12.30;58.00;;;;;;5165371;28;20050;-29
2022/01/11 02:24:06;;;;;;;157.73;100.80;;;12.30;58.00;;;;;;5165844;28;20054;-31
2022/01/11 02:26:37;;;;;;;150.40;97.10;;;12.30;58.00;;;;;;5169858;28;20038;-29
2022/01/11 02:29:08;;;;;;;122.47;83.80;;;12.30;58.20;;;;;;5170632;28;20443;-31
2022/01/11 02:31:40;;;;;;;114.97;79.07;;;12.30;58.00;;;;;;5171036;28;20046;-31
2022/01/11 02:34:14;;;;;;;135.13;89.93;;;12.30;57.90;;;;;;5169211;28;20042;-30
2022/01/11 02:36:46;;;;;;;126.10;83.30;;;12.30;57.90;;;;;;5171062;28;20396;-31
2022/01/11 02:39:17;;;;;;;115.47;77.57;;;12.30;57.90;;;;;;5170216;28;20084;-30
2022/01/11 02:41:49;;;;;;;105.13;71.87;;;12.30;57.80;;;;;;5170400;28;20046;-31
2022/01/11 02:44:21;;;;;;;108.63;72.63;;;12.30;57.80;;;;;;5169370;28;20047;-29
2022/01/11 02:46:51;;;;;;;108.53;70.90;;;12.30;57.90;;;;;;5170154;28;20050;-31
2022/01/11 02:49:23;;;;;;;97.37;69.47;;;12.30;57.80;;;;;;5168847;28;20377;-30
2022/01/11 02:51:54;;;;;;;99.27;69.60;;;12.30;57.70;;;;;;5170043;28;20046;-29
2022/01/11 02:54:25;;;;;;;121.37;82.00;;;12.30;57.70;;;;;;5168762;28;20070;-30
2022/01/11 02:56:56;;;;;;;108.23;74.43;;;12.30;57.80;;;;;;5170093;28;20073;-30
2022/01/11 02:59:27;;;;;;;149.43;109.60;;;12.30;57.70;;;;;;5170022;28;20093;-30
2022/01/11 03:01:58;;;;;;;359.93;234.77;;;12.30;57.80;;;;;;5169698;28;20046;-31
2022/01/11 03:04:33;;;;;;;187.23;115.03;;;12.30;57.70;;;;;;5169832;28;20077;-30
2022/01/11 03:07:04;;;;;;;198.17;120.60;;;12.30;57.70;;;;;;5169655;28;20050;-30
2022/01/11 03:09:53;;;;;;;194.40;116.90;;;12.30;57.70;;;;;;5169687;28;20050;-30
2022/01/11 03:12:29;;;;;;;187.03;114.70;;;12.20;57.60;;;;;;5138416;28;20058;-29
2022/01/11 03:15:00;;;;;;;168.25;106.25;;;12.30;57.80;;;;;;5151349;28;20245;-30
2022/01/11 03:17:31;;;;;;;152.67;98.30;;;12.30;57.80;;;;;;5167066;28;20556;-29
2022/01/11 03:20:03;;;;;;;145.27;98.97;;;12.20;57.70;;;;;;5150472;28;20065;-31
2022/01/11 03:22:34;;;;;;;149.77;97.97;;;12.20;57.60;;;;;;5168397;28;20050;-31
2022/01/11 03:25:06;;;;;;;137.47;88.77;;;12.30;57.60;;;;;;5168255;28;20092;-30
2022/01/11 03:27:38;;;;;;;128.87;88.00;;;12.20;57.60;;;;;;5168389;28;20496;-31
2022/01/11 03:30:10;;;;;;;128.20;87.95;;;12.20;57.60;;;;;;5168052;28;20047;-29
2022/01/11 03:32:41;;;;;;;124.00;86.97;;;12.20;58.60;;;;;;5167026;28;20480;-31
2022/01/11 03:35:12;;;;;;;123.40;82.77;;;12.20;59.50;;;;;;5168191;28;20088;-30
2022/01/11 03:37:43;;;;;;;116.10;78.80;;;12.10;59.40;;;;;;5167616;28;20046;-30
2022/01/11 03:40:16;;;;;;;110.80;77.00;;;12.20;59.30;;;;;;5168184;28;20046;-29
2022/01/11 03:42:47;;;;;;;120.43;80.85;;;12.20;58.80;;;;;;5167965;28;20053;-30
2022/01/11 03:45:21;;;;;;;105.90;73.93;;;12.20;58.40;;;;;;5167242;28;20053;-30
2022/01/11 03:47:54;;;;;;;104.47;73.07;;;12.20;58.10;;;;;;5166682;28;20145;-30
2022/01/11 03:50:25;;;;;;;94.90;69.30;;;12.20;58.00;;;;;;5167136;28;20380;-30
2022/01/11 03:53:08;;;;;;;104.63;72.57;;;12.20;57.70;;;;;;5167312;28;20051;-29
2022/01/11 03:58:25;;;;;;;106.82;72.60;;;12.20;57.30;;;;;;5167414;28;20100;-29
2022/01/11 04:00:57;;;;;;;105.30;71.40;;;12.20;57.30;;;;;;5167804;28;20046;-29
2022/01/11 04:03:28;;;;;;;109.67;78.83;;;12.20;57.40;;;;;;5167900;28;20050;-30
2022/01/11 04:05:59;;;;;;;126.70;84.30;;;12.20;57.30;;;;;;5167668;28;20043;-29
2022/01/11 04:08:30;;;;;;;111.33;74.40;;;12.20;57.40;;;;;;5149769;28;20104;-31
2022/01/11 04:11:02;;;;;;;110.80;73.60;;;12.20;57.30;;;;;;5165885;28;20077;-30
2022/01/11 04:13:32;;;;;;;112.23;75.60;;;12.20;57.10;;;;;;5125702;28;1175976;-30
2022/01/11 04:16:04;;;;;;;301.23;183.53;;;12.20;57.00;;;;;;5168429;28;20046;-30
2022/01/11 04:18:35;;;;;;;355.90;222.37;;;12.20;57.00;;;;;;5167229;28;20093;-29
2022/01/11 04:21:06;;;;;;;152.37;104.93;;;12.20;57.00;;;;;;5166361;28;20058;-30
2022/01/11 04:23:38;;;;;;;164.10;105.33;;;12.20;57.00;;;;;;5149897;28;20053;-29
2022/01/11 04:26:09;;;;;;;137.70;84.60;;;12.20;57.10;;;;;;5166006;28;20046;-31
2022/01/11 04:28:40;;;;;;;137.93;86.80;;;12.20;57.30;;;;;;5150084;28;20393;-30
2022/01/11 04:31:11;;;;;;;111.30;76.97;;;12.20;57.30;;;;;;5165962;28;20411;-30
2022/01/11 04:33:43;;;;;;;116.33;77.47;;;12.30;57.50;;;;;;5166019;28;20137;-29
2022/01/11 04:36:14;;;;;;;116.33;78.83;;;12.40;57.30;;;;;;5165945;28;20064;-30
2022/01/11 04:38:45;;;;;;;136.70;90.13;;;12.60;56.90;;;;;;5165568;28;20141;-29
2022/01/11 04:41:16;;;;;;;146.30;94.63;;;12.70;56.80;;;;;;5165797;28;20054;-30
2022/01/11 04:43:47;;;;;;;158.20;103.77;;;12.60;56.90;;;;;;5165791;28;20061;-29
2022/01/11 04:46:19;;;;;;;133.03;87.67;;;12.70;57.10;;;;;;5133575;28;20062;-29
2022/01/11 04:48:50;;;;;;;153.67;99.10;;;12.90;57.00;;;;;;5164620;28;20046;-30
2022/01/11 04:51:21;;;;;;;162.80;102.50;;;13.00;56.70;;;;;;5166078;28;20109;-29
2022/01/11 04:53:52;;;;;;;148.30;99.17;;;13.20;56.80;;;;;;5167266;28;20054;-30
2022/01/11 04:56:23;;;;;;;141.83;93.80;;;13.20;56.90;;;;;;5167587;28;20381;-29
2022/01/11 04:58:54;;;;;;;139.53;93.63;;;13.20;56.90;;;;;;5167659;28;20093;-29
2022/01/11 05:01:27;;;;;;;126.67;88.40;;;13.10;57.00;;;;;;5167806;28;20046;-29
2022/01/11 05:03:58;;;;;;;119.85;85.90;;;13.10;57.50;;;;;;5166215;28;20093;-30
2022/01/11 05:06:29;;;;;;;135.60;91.27;;;13.10;57.40;;;;;;5167571;28;20082;-29
2022/01/11 05:09:00;;;;;;;138.47;90.27;;;12.20;58.10;;;;;;5167600;28;20054;-29
2022/01/11 05:11:31;;;;;;;;;;;10.00;60.20;;;;;;5167886;28;20046;-33
2022/01/11 05:14:02;;;;;;;117.83;77.73;;;8.80;63.10;;;;;;5167255;28;20008;-28
2022/01/11 05:16:33;;;;;;;114.27;72.23;;;8.10;64.60;;;;;;5167185;28;20121;-29
2022/01/11 05:19:07;;;;;;;122.17;73.73;;;7.80;65.90;;;;;;5167666;28;20574;-29
2022/01/11 05:21:41;;;;;;;;;;;8.20;66.60;;;;;;5166403;28;20046;-28
2022/01/11 05:24:12;;;;;;;;;;;9.30;65.20;;;;;;5167795;28;19926;-30
2022/01/11 05:26:43;;;;;;;117.20;76.37;;;10.10;63.30;;;;;;5166935;28;20316;-30
2022/01/11 05:29:14;;;;;;;111.83;68.93;;;10.70;62.70;;;;;;5167465;28;20048;-30
2022/01/11 05:31:45;;;;;;;139.83;85.93;;;11.30;61.90;;;;;;5167038;28;20480;-31
2022/01/11 05:34:16;;;;;;;131.57;84.90;;;11.60;61.20;;;;;;5167051;28;20046;-30
2022/01/11 05:36:47;;;;;;;124.27;82.57;;;11.90;61.20;;;;;;5165986;28;20042;-29
2022/01/11 05:39:18;;;;;;;129.67;86.17;;;12.00;60.90;;;;;;5167340;28;20546;-30
2022/01/11 05:41:49;;;;;;;116.90;86.00;;;12.20;60.60;;;;;;5165852;28;20046;-31
2022/01/11 05:44:20;;;;;;;124.40;89.27;;;12.30;60.50;;;;;;5166960;28;20054;-28
2022/01/11 05:46:51;;;;;;;103.30;74.07;;;12.40;60.50;;;;;;5165708;28;20396;-30
2022/01/11 05:49:22;;;;;;;100.73;72.87;;;12.40;60.30;;;;;;5165819;28;20050;-30
2022/01/11 05:51:53;;;;;;;99.83;70.53;;;12.40;60.20;;;;;;5166777;28;20058;-30
2022/01/11 05:54:24;;;;;;;134.83;91.83;;;12.50;60.40;;;;;;5166517;28;20488;-31
2022/01/11 05:56:55;;;;;;;209.93;129.67;;;12.50;60.60;;;;;;5166767;28;20069;-30
2022/01/11 05:59:26;;;;;;;215.80;139.57;;;12.50;60.80;;;;;;5166327;28;20496;-28
2022/01/11 06:01:57;;;;;;;263.50;168.73;;;12.60;61.10;;;;;;5165999;28;20396;-29
2022/01/11 06:04:28;;;;;;;255.13;164.67;;;12.50;61.20;;;;;;5165718;28;20050;-28
2022/01/11 06:06:59;;;;;;;216.53;138.80;;;12.50;61.50;;;;;;5166613;28;20544;-29
2022/01/11 06:09:30;;;;;;;170.53;118.43;;;12.60;61.60;;;;;;5165835;28;20141;-29
2022/01/11 06:12:01;;;;;;;155.57;113.30;;;12.60;61.90;;;;;;5166786;28;20038;-29
2022/01/11 06:14:32;;;;;;;138.73;103.37;;;12.60;61.80;;;;;;5166348;28;20050;-31
2022/01/11 06:17:03;;;;;;;146.17;105.80;;;12.60;62.10;;;;;;5166304;28;20057;-31
2022/01/11 06:19:34;;;;;;;139.80;104.87;;;12.60;62.30;;;;;;5166570;28;20038;-31
2022/01/11 06:22:05;;;;;;;141.00;105.90;;;12.60;62.10;;;;;;5166358;28;20133;-30
2022/01/11 06:24:36;;;;;;;138.23;103.97;;;12.50;62.20;;;;;;5165325;28;20536;-31
2022/01/11 06:27:07;;;;;;;143.90;108.87;;;12.60;62.20;;;;;;5166563;28;20129;-31
2022/01/11 06:29:38;;;;;;;148.87;108.43;;;12.50;62.20;;;;;;5166431;28;20157;-30
2022/01/11 06:32:09;;;;;;;145.30;102.90;;;12.50;62.20;;;;;;5165264;28;20042;-31
2022/01/11 06:34:40;;;;;;;142.20;104.13;;;12.50;62.20;;;;;;5166285;28;20054;-30
2022/01/11 06:37:11;;;;;;;127.93;94.63;;;12.50;61.80;;;;;;5166511;28;20043;-30
2022/01/11 06:39:42;;;;;;;123.03;91.77;;;12.60;62.30;;;;;;5166205;28;20125;-30
2022/01/11 06:42:13;;;;;;;121.37;86.50;;;12.70;62.10;;;;;;5166074;28;20440;-30
2022/01/11 06:44:44;;;;;;;118.60;86.30;;;12.60;62.10;;;;;;5166019;28;20077;-31
2022/01/11 06:47:15;;;;;;;139.63;94.90;;;12.60;62.50;;;;;;5164830;28;20085;-29
2022/01/11 06:49:46;;;;;;;135.10;96.97;;;12.60;62.50;;;;;;5164684;28;20048;-29
2022/01/11 06:52:17;;;;;;;118.90;82.07;;;12.50;62.70;;;;;;5166101;28;20053;-31
2022/01/11 06:54:48;;;;;;;112.63;81.37;;;12.50;62.50;;;;;;5165861;28;20046;-31
2022/01/11 06:57:19;;;;;;;147.63;100.23;;;12.50;62.70;;;;;;5166187;28;20499;-31
2022/01/11 06:59:50;;;;;;;123.40;86.03;;;12.50;63.10;;;;;;5148885;28;20054;-28
2022/01/11 07:02:21;;;;;;;124.07;91.73;;;12.50;63.20;;;;;;5164948;28;20043;-30
2022/01/11 07:04:52;;;;;;;151.10;104.27;;;12.50;63.30;;;;;;5165834;28;20046;-29
2022/01/11 07:07:23;;;;;;;123.43;89.87;;;12.50;63.20;;;;;;5164959;28;20053;-30
2022/01/11 07:09:54;;;;;;;116.20;83.17;;;12.50;63.40;;;;;;5148157;28;20492;-30
2022/01/11 07:12:25;;;;;;;122.90;90.33;;;12.50;63.20;;;;;;5168751;28;20089;-29
2022/01/11 07:14:56;;;;;;;168.67;117.90;;;12.50;63.50;;;;;;5183959;28;20118;-30
2022/01/11 07:17:27;;;;;;;217.87;128.97;;;12.50;63.60;;;;;;5169623;28;20069;-28
2022/01/11 07:19:58;;;;;;;143.43;96.23;;;12.50;63.60;;;;;;5169832;28;20077;-30
2022/01/11 07:22:29;;;;;;;157.03;103.10;;;12.50;63.70;;;;;;5168372;28;20038;-30
2022/01/11 07:25:00;;;;;;;172.47;111.87;;;12.60;63.60;;;;;;5169560;28;20101;-30
2022/01/11 07:27:33;;;;;;;172.33;109.63;;;12.60;64.00;;;;;;5168229;28;20498;-31
2022/01/11 07:30:05;;;;;;;182.57;115.40;;;12.60;63.90;;;;;;5169365;28;20095;-28
2022/01/11 07:32:37;;;;;;;126.50;88.17;;;12.70;63.80;;;;;;5168190;28;20051;-31
2022/01/11 07:35:10;;;;;;;126.63;95.77;;;12.70;63.70;;;;;;5169371;28;20120;-29
2022/01/11 07:37:41;;;;;;;132.17;96.27;;;12.70;63.70;;;;;;5169512;28;20129;-29
2022/01/11 07:40:12;;;;;;;140.87;99.40;;;12.80;63.60;;;;;;5152020;28;20116;-29
2022/01/11 07:42:45;;;;;;;159.57;106.53;;;12.80;63.60;;;;;;5169515;28;20105;-30
2022/01/11 07:45:16;;;;;;;126.83;92.03;;;12.80;63.70;;;;;;5168023;28;20407;-28
2022/01/11 07:47:47;;;;;;;129.83;96.27;;;12.80;63.60;;;;;;5169394;28;20046;-29
2022/01/11 07:50:18;;;;;;;117.17;88.47;;;12.90;63.70;;;;;;5169163;28;20042;-29
2022/01/11 07:52:49;;;;;;;124.37;85.83;;;12.90;63.70;;;;;;5168170;28;20042;-29
2022/01/11 07:55:20;;;;;;;119.43;86.67;;;12.90;63.60;;;;;;5167533;28;20058;-30
2022/01/11 07:57:51;;;;;;;126.93;91.33;;;12.90;63.80;;;;;;5168890;28;20077;-29
2022/01/11 08:00:22;;;;;;;132.27;95.50;;;12.90;64.10;;;;;;5169059;28;20050;-30
2022/01/11 08:02:53;;;;;;;120.40;88.17;;;12.90;64.00;;;;;;5168886;28;20068;-28
2022/01/11 08:05:24;;;;;;;110.93;82.50;;;12.80;64.00;;;;;;5167678;28;20042;-31
2022/01/11 08:07:55;;;;;;;115.50;82.40;;;12.80;64.40;;;;;;5168678;28;20038;-31
2022/01/11 08:10:26;;;;;;;109.43;77.87;;;12.80;64.60;;;;;;5151181;28;20097;-31
2022/01/11 08:13:02;;;;;;;112.97;82.37;;;12.80;64.70;;;;;;5168054;28;20054;-30
2022/01/11 08:15:33;;;;;;;109.33;79.00;;;12.80;64.70;;;;;;5167378;28;20130;-29
2022/01/11 08:18:05;;;;;;;107.47;80.13;;;12.80;64.80;;;;;;5168610;28;20042;-29
2022/01/11 08:20:36;;;;;;;100.63;71.63;;;12.80;65.10;;;;;;5168357;28;20038;-29
2022/01/11 08:23:08;;;;;;;121.07;90.07;;;12.70;65.30;;;;;;5166832;28;20046;-29
2022/01/11 08:25:39;;;;;;;125.50;91.47;;;12.70;65.50;;;;;;5168855;28;20510;-31
2022/01/11 08:28:10;;;;;;;112.47;80.83;;;12.70;65.60;;;;;;5167335;28;20051;-31
2022/01/11 08:30:41;;;;;;;142.73;95.93;;;12.70;65.60;;;;;;5168629;28;20365;-29
2022/01/11 08:33:12;;;;;;;182.70;110.40;;;12.70;65.80;;;;;;5166616;28;20050;-29
2022/01/11 08:35:43;;;;;;;212.90;126.70;;;12.70;66.00;;;;;;5168032;28;20408;-30
2022/01/11 08:38:15;;;;;;;133.03;94.00;;;12.70;66.10;;;;;;5150670;28;20480;-29
2022/01/11 08:40:45;;;;;;;119.57;89.70;;;12.70;66.20;;;;;;5167436;28;20065;-31
2022/01/11 08:43:17;;;;;;;133.63;93.13;;;12.70;66.20;;;;;;5167924;28;20136;-29
2022/01/11 08:45:48;;;;;;;158.43;107.73;;;12.70;66.20;;;;;;5167816;28;20520;-29
2022/01/11 08:48:19;;;;;;;143.17;97.77;;;12.70;66.20;;;;;;5167898;28;20046;-31
2022/01/11 08:50:53;;;;;;;128.97;96.77;;;12.70;66.40;;;;;;5168038;28;20057;-29
2022/01/11 08:53:24;;;;;;;120.97;94.87;;;12.70;66.60;;;;;;5167365;28;20042;-30
2022/01/11 08:55:55;;;;;;;160.47;106.27;;;12.70;66.90;;;;;;5167562;28;20077;-31
2022/01/11 08:58:26;;;;;;;115.30;83.17;;;12.60;66.80;;;;;;5166467;28;20076;-30
2022/01/11 09:00:57;;;;;;;102.30;75.33;;;12.60;66.90;;;;;;5167587;28;20069;-30
2022/01/11 09:03:28;;;;;;;124.70;88.30;;;12.70;66.90;;;;;;5167919;28;20461;-29
2022/01/11 09:05:59;;;;;;;109.73;81.60;;;12.60;67.00;;;;;;5167471;28;20042;-29
2022/01/11 09:08:30;;;;;;;109.40;77.77;;;12.60;67.10;;;;;;5167531;28;20112;-30
2022/01/11 09:11:01;;;;;;;114.07;82.93;;;12.60;67.10;;;;;;5167494;28;20476;-30
2022/01/11 09:13:33;;;;;;;112.93;84.90;;;12.60;67.30;;;;;;5167061;28;20051;-30
2022/01/11 09:16:05;;;;;;;147.27;112.17;;;12.60;67.40;;;;;;5167725;28;20096;-29
2022/01/11 09:18:36;;;;;;;113.50;90.30;;;12.60;67.50;;;;;;5166189;28;20038;-29
2022/01/11 09:21:07;;;;;;;111.47;76.90;;;12.60;67.50;;;;;;5167044;28;20077;-29
2022/01/11 09:23:38;;;;;;;92.47;69.20;;;12.60;67.70;;;;;;5167493;28;20045;-30
2022/01/11 09:26:09;;;;;;;102.10;75.80;;;12.60;67.60;;;;;;5167563;28;20058;-29
2022/01/11 09:28:41;;;;;;;117.20;88.83;;;12.60;67.80;;;;;;5167176;28;20121;-29
2022/01/11 09:31:11;;;;;;;120.77;95.33;;;12.60;67.90;;;;;;5167028;28;20118;-29
2022/01/11 09:33:42;;;;;;;120.30;98.43;;;12.60;68.20;;;;;;5165172;28;20074;-30
2022/01/11 09:36:13;;;;;;;138.53;103.60;;;12.60;68.20;;;;;;5167004;28;20077;-29
2022/01/11 09:38:44;;;;;;;109.17;83.10;;;12.60;68.30;;;;;;5165622;28;20555;-29
2022/01/11 09:41:16;;;;;;;104.87;79.73;;;12.60;68.40;;;;;;5167324;28;20125;-31
2022/01/11 09:43:47;;;;;;;107.10;81.50;;;12.60;68.30;;;;;;5166627;28;20446;-30
2022/01/11 09:46:18;;;;;;;115.53;86.83;;;12.60;68.40;;;;;;5166232;28;20042;-30
2022/01/11 09:48:49;;;;;;;117.47;88.30;;;12.60;68.50;;;;;;5165597;28;20046;-31
2022/01/11 09:51:20;;;;;;;112.57;84.97;;;12.60;68.50;;;;;;5165508;28;20054;-30
2022/01/11 09:53:51;;;;;;;98.07;74.73;;;12.60;68.60;;;;;;5166381;28;20042;-30
2022/01/11 09:56:22;;;;;;;108.30;86.00;;;12.60;68.70;;;;;;5166851;28;20104;-30
2022/01/11 09:58:53;;;;;;;99.67;77.40;;;12.60;68.70;;;;;;5166811;28;20039;-30
2022/01/11 10:01:24;;;;;;;92.23;69.17;;;12.60;68.70;;;;;;5166680;28;20054;-31
2022/01/11 10:04:10;;;;;;;96.43;72.47;;;12.60;68.80;;;;;;5165338;28;20073;-29
2022/01/11 10:06:44;;;;;;;89.00;69.40;;;12.60;68.60;;;;;;5165321;28;20046;-29
2022/01/11 10:09:18;;;;;;;94.53;72.03;;;12.60;68.50;;;;;;5166417;28;20128;-30
2022/01/11 10:11:56;;;;;;;105.55;75.40;;;12.60;68.40;;;;;;5166605;28;20050;-29
2022/01/11 10:14:32;;;;;;;97.70;72.37;;;12.60;68.60;;;;;;5166455;28;20127;-30
2022/01/11 10:17:15;;;;;;;90.57;67.07;;;12.60;68.60;;;;;;5165359;28;20065;-31
2022/01/11 10:19:50;;;;;;;109.20;81.43;;;12.60;68.50;;;;;;5165053;28;20046;-29
2022/01/11 10:22:22;;;;;;;103.27;76.23;;;12.60;68.60;;;;;;5165257;28;20108;-29
2022/01/11 10:24:54;;;;;;;95.83;74.43;;;12.50;68.80;;;;;;5166288;28;20046;-29
2022/01/11 10:27:33;;;;;;;92.00;70.60;;;12.50;68.80;;;;;;5165776;28;20043;-30
2022/01/11 10:30:25;;;;;;;104.47;77.77;;;12.50;69.10;;;;;;5166204;28;20124;-31
2022/01/11 10:32:58;;;;;;;104.00;77.00;;;12.50;69.20;;;;;;5165518;28;20050;-30
2022/01/11 10:35:42;;;;;;;117.00;88.57;;;12.50;69.20;;;;;;5165755;28;20402;-29
2022/01/11 10:38:23;;;;;;;104.93;78.30;;;12.50;69.40;;;;;;5160408;28;20046;-31
2022/01/11 10:40:54;;;;;;;107.73;75.67;;;12.60;69.20;;;;;;5162893;28;20046;-29
2022/01/11 10:43:25;;;;;;;145.63;101.50;;;12.70;69.00;;;;;;5163819;28;20408;-30
2022/01/11 10:45:58;;;;;;;429.43;325.50;;;12.70;69.10;;;;;;5164346;28;20058;-30
2022/01/11 10:48:35;;;;;;;134.02;101.18;;;12.80;69.00;;;;;;5166603;28;20051;-30
2022/01/11 10:51:12;;;;;;;115.87;85.20;;;12.80;68.90;;;;;;5166563;28;20061;-29
2022/01/11 10:53:49;;;;;;;106.77;76.93;;;12.80;69.10;;;;;;5167390;28;20046;-31
2022/01/11 10:56:20;;;;;;;91.43;68.70;;;12.80;69.40;;;;;;5156525;28;20055;-30
2022/01/11 10:59:09;;;;;;;95.43;69.70;;;12.90;69.50;;;;;;5165334;28;20455;-30
2022/01/11 11:01:43;;;;;;;98.23;71.40;;;12.80;69.40;;;;;;5167496;28;20050;-31
2022/01/11 11:04:32;;;;;;;111.60;83.83;;;12.90;69.50;;;;;;5181382;28;20411;-30
2022/01/11 11:07:14;;;;;;;139.70;95.27;;;12.80;69.70;;;;;;5166063;28;20443;-30
2022/01/11 11:09:46;;;;;;;131.53;93.00;;;12.80;69.80;;;;;;5166977;28;20128;-31
2022/01/11 11:12:19;;;;;;;143.07;98.47;;;12.80;69.80;;;;;;5166444;28;20051;-30
2022/01/11 11:14:52;;;;;;;158.27;106.75;;;12.80;69.90;;;;;;5149692;28;20420;-30
2022/01/11 11:17:30;;;;;;;201.13;131.48;;;12.80;70.30;;;;;;5167482;28;20069;-29
2022/01/11 11:20:05;;;;;;;140.70;102.07;;;12.80;70.70;;;;;;5165825;28;20046;-30
2022/01/11 11:22:36;;;;;;;118.30;88.70;;;12.80;70.80;;;;;;5167820;28;20042;-29
2022/01/11 11:25:07;;;;;;;122.20;88.50;;;12.80;70.50;;;;;;5165995;28;20050;-30
2022/01/11 11:27:38;;;;;;;119.73;88.37;;;12.80;70.70;;;;;;5166139;28;20443;-29
2022/01/11 11:30:10;;;;;;;117.67;89.43;;;12.80;70.70;;;;;;5166926;28;20074;-30
2022/01/11 11:32:41;;;;;;;121.60;94.13;;;12.80;70.70;;;;;;5166924;28;20054;-31
2022/01/11 11:35:16;;;;;;;143.50;113.70;;;12.80;70.50;;;;;;5165576;28;20618;-31
2022/01/11 11:37:52;;;;;;;130.03;106.03;;;12.90;70.50;;;;;;5166934;28;20125;-32
2022/01/11 11:40:24;;;;;;;134.93;110.30;;;12.90;70.40;;;;;;5149922;28;20112;-31
2022/01/11 11:43:01;;;;;;;143.15;114.55;;;12.90;70.50;;;;;;5165590;28;20053;-30
2022/01/11 11:45:33;;;;;;;132.70;103.90;;;12.90;70.40;;;;;;5152304;28;20046;-31
2022/01/11 11:48:09;;;;;;;165.15;121.93;;;12.90;70.20;;;;;;5166715;28;20078;-30
2022/01/11 11:51:00;;;;;;;172.97;124.73;;;12.90;70.20;;;;;;5153524;28;20507;-31
2022/01/11 11:53:35;;;;;;;168.40;120.77;;;12.90;70.10;;;;;;5166576;28;20160;-31
2022/01/11 11:56:18;;;;;;;130.93;98.53;;;12.90;70.20;;;;;;5165484;28;20039;-30
2022/01/11 11:58:57;;;;;;;132.02;97.80;;;12.90;70.50;;;;;;5166345;28;20104;-31
2022/01/11 12:01:46;;;;;;;159.93;122.80;;;12.90;70.80;;;;;;5165972;28;20125;-32
2022/01/11 12:04:30;;;;;;;126.30;93.17;;;12.90;72.00;;;;;;5151813;28;20047;-29
2022/01/11 12:07:20;;;;;;;;;;;12.90;72.20;;;;;;5149163;28;20089;-29
2022/01/11 12:09:52;;;;;;;144.63;108.03;;;12.90;71.90;;;;;;5148462;28;20360;-30
2022/01/11 12:12:43;;;;;;;168.23;128.77;;;12.90;71.80;;;;;;5147311;28;20511;-29
2022/01/11 12:15:33;;;;;;;138.67;106.10;;;12.90;71.80;;;;;;5148625;28;20461;-29
2022/01/11 12:18:04;;;;;;;157.83;121.23;;;13.00;71.70;;;;;;5148295;28;20485;-31
2022/01/11 12:20:51;;;;;;;154.20;117.43;;;12.80;71.20;;;;;;5148275;28;20122;-30
2022/01/11 12:23:33;;;;;;;159.83;114.77;;;11.00;74.50;;;;;;5147439;28;20051;-30
2022/01/11 12:26:16;;;;;;;152.18;108.88;;;9.90;77.10;;;;;;5148130;28;20086;-28
2022/01/11 12:29:02;;;;;;;155.90;109.60;;;9.70;78.30;;;;;;5147141;28;20047;-31
2022/01/11 12:31:36;;;;;;;146.70;105.10;;;10.30;77.50;;;;;;5148403;28;20121;-31
2022/01/11 12:34:11;;;;;;;135.97;98.00;;;11.00;76.20;;;;;;5148165;28;20050;-29
2022/01/11 12:36:59;;;;;;;128.13;95.13;;;11.40;75.40;;;;;;5148271;28;20169;-30
2022/01/11 12:39:31;;;;;;;122.67;95.17;;;11.70;74.50;;;;;;5131744;28;20047;-29
2022/01/11 12:42:02;;;;;;;147.68;120.00;;;12.00;74.10;;;;;;5148035;28;20054;-31
2022/01/11 12:47:07;;;;;;;103.80;78.67;;;12.30;73.20;;;;;;5148451;28;20122;-30
2022/01/11 12:49:44;;;;;;;106.53;85.30;;;12.40;72.60;;;;;;5147689;28;20058;-31